Terminal Aerodrome Forecast
Issued by NWS

Home | Current Version | Previous Version | Text Only | Print | Product List | Glossary On
Versions: 1 2 3 4 5 6 7 8 9 10 11 12 13 14
000
FTUS42 TJSJ 261903 AAB
TAFJSJ
TAF AMD
TJSJ 261903Z 2619/2718 17010G20KT P6SM FEW030
     FM262230 VRB06KT P6SM SCT040 BKN090
     FM271300 17004KT P6SM SCT050=

USA.gov is the U.S. government's official web portal to all federal, state and local government web resources and services.